GB-0801 weather

Baileys Fram Airstrip
Long Crendon (Bucks), England, United Kingdom

Public forecast

Using degrees Celsius for public forecast. Weather courtesy of forecast.io.

Closest aviation weather report (METAR) to Baileys Fram Airstrip

Closest report is RAF Benson, 10.2 nm (18.8 km) SSW. Retrieved 2020/06/06 03:50 UTC (22 minutes ago):

EGUB 060350Z AUTO 24008KT 9999 // NCD 07/02 Q0998

Closest aviation forecast (TAF) to Baileys Fram Airstrip

Forecast is more than 12 hours old.

Closest forecast is RAF Benson, 10.2 nm (18.8 km) SSW. Retrieved 2019/10/31 18:21 UTC (7 months ago):

TAF TAF EGUB 312016Z 3118/0112 CNL